sensor_id;sensor_type;location;lat;lon;timestamp;temperature;humidity
64111;DHT22;50401;48.188;11.566;2022-12-24T00:00:55;11.32;86.02
64111;DHT22;50401;48.188;11.566;2022-12-24T00:03:21;11.34;85.85
64111;DHT22;50401;48.188;11.566;2022-12-24T00:05:46;11.32;85.52
64111;DHT22;50401;48.188;11.566;2022-12-24T00:08:11;11.28;84.93
64111;DHT22;50401;48.188;11.566;2022-12-24T00:10:37;11.24;84.82
64111;DHT22;50401;48.188;11.566;2022-12-24T00:13:02;11.27;84.74
64111;DHT22;50401;48.188;11.566;2022-12-24T00:15:27;11.20;84.61
64111;DHT22;50401;48.188;11.566;2022-12-24T00:17:53;11.26;84.66
64111;DHT22;50401;48.188;11.566;2022-12-24T00:20:18;11.26;84.58
64111;DHT22;50401;48.188;11.566;2022-12-24T00:22:44;11.28;84.43
64111;DHT22;50401;48.188;11.566;2022-12-24T00:25:09;11.31;84.32
64111;DHT22;50401;48.188;11.566;2022-12-24T00:27:34;11.31;84.38
64111;DHT22;50401;48.188;11.566;2022-12-24T00:30:00;11.39;84.19
64111;DHT22;50401;48.188;11.566;2022-12-24T00:32:25;11.32;84.44
64111;DHT22;50401;48.188;11.566;2022-12-24T00:34:50;11.26;84.59
64111;DHT22;50401;48.188;11.566;2022-12-24T00:37:15;11.32;84.65
64111;DHT22;50401;48.188;11.566;2022-12-24T00:39:41;11.31;84.74
64111;DHT22;50401;48.188;11.566;2022-12-24T00:42:06;11.34;84.65
64111;DHT22;50401;48.188;11.566;2022-12-24T00:44:31;11.37;84.67
64111;DHT22;50401;48.188;11.566;2022-12-24T00:46:56;11.37;84.83
64111;DHT22;50401;48.188;11.566;2022-12-24T00:49:22;11.14;85.38
64111;DHT22;50401;48.188;11.566;2022-12-24T00:51:47;11.17;85.52
64111;DHT22;50401;48.188;11.566;2022-12-24T00:54:13;11.03;85.87
64111;DHT22;50401;48.188;11.566;2022-12-24T00:56:38;11.04;85.91
64111;DHT22;50401;48.188;11.566;2022-12-24T00:59:04;11.14;85.69
64111;DHT22;50401;48.188;11.566;2022-12-24T01:01:29;11.20;85.60
64111;DHT22;50401;48.188;11.566;2022-12-24T01:03:54;11.27;85.45
64111;DHT22;50401;48.188;11.566;2022-12-24T01:06:38;11.28;84.82
64111;DHT22;50401;48.188;11.566;2022-12-24T01:09:04;11.28;84.52
64111;DHT22;50401;48.188;11.566;2022-12-24T01:11:29;11.28;84.47
64111;DHT22;50401;48.188;11.566;2022-12-24T01:13:54;11.30;84.24
64111;DHT22;50401;48.188;11.566;2022-12-24T01:16:19;11.26;83.75
64111;DHT22;50401;48.188;11.566;2022-12-24T01:18:45;11.27;83.76
64111;DHT22;50401;48.188;11.566;2022-12-24T01:21:12;11.24;83.74
64111;DHT22;50401;48.188;11.566;2022-12-24T01:23:37;11.23;83.84
64111;DHT22;50401;48.188;11.566;2022-12-24T01:26:03;11.16;83.83
64111;DHT22;50401;48.188;11.566;2022-12-24T01:28:28;11.13;83.80
64111;DHT22;50401;48.188;11.566;2022-12-24T01:30:54;11.16;83.87
64111;DHT22;50401;48.188;11.566;2022-12-24T01:33:19;11.16;83.60
64111;DHT22;50401;48.188;11.566;2022-12-24T01:35:44;11.17;83.71
64111;DHT22;50401;48.188;11.566;2022-12-24T01:38:10;11.16;83.71
64111;DHT22;50401;48.188;11.566;2022-12-24T01:40:36;11.16;83.55
64111;DHT22;50401;48.188;11.566;2022-12-24T01:43:21;11.14;83.35
64111;DHT22;50401;48.188;11.566;2022-12-24T01:45:50;11.07;83.29
64111;DHT22;50401;48.188;11.566;2022-12-24T01:48:32;11.11;83.43
64111;DHT22;50401;48.188;11.566;2022-12-24T01:51:41;11.11;82.26
64111;DHT22;50401;48.188;11.566;2022-12-24T01:53:48;11.17;82.37
64111;DHT22;50401;48.188;11.566;2022-12-24T01:56:15;11.17;82.22
64111;DHT22;50401;48.188;11.566;2022-12-24T01:58:42;11.10;82.07
64111;DHT22;50401;48.188;11.566;2022-12-24T02:01:09;11.09;82.63
64111;DHT22;50401;48.188;11.566;2022-12-24T02:03:34;11.11;82.39
64111;DHT22;50401;48.188;11.566;2022-12-24T02:05:59;11.10;82.52
64111;DHT22;50401;48.188;11.566;2022-12-24T02:08:25;11.14;82.32
64111;DHT22;50401;48.188;11.566;2022-12-24T02:11:08;11.10;82.47
64111;DHT22;50401;48.188;11.566;2022-12-24T02:13:33;11.06;82.43
64111;DHT22;50401;48.188;11.566;2022-12-24T02:18:57;11.11;82.19
64111;DHT22;50401;48.188;11.566;2022-12-24T02:37:05;11.07;81.74
64111;DHT22;50401;48.188;11.566;2022-12-24T02:39:48;11.07;81.82
64111;DHT22;50401;48.188;11.566;2022-12-24T02:42:16;11.09;81.43
64111;DHT22;50401;48.188;11.566;2022-12-24T02:47:11;11.07;81.29
64111;DHT22;50401;48.188;11.566;2022-12-24T02:49:37;11.06;80.84
64111;DHT22;50401;48.188;11.566;2022-12-24T02:52:03;11.09;80.42
64111;DHT22;50401;48.188;11.566;2022-12-24T02:54:28;11.07;80.51
64111;DHT22;50401;48.188;11.566;2022-12-24T02:56:58;11.03;80.45
64111;DHT22;50401;48.188;11.566;2022-12-24T03:02:46;11.00;79.79
64111;DHT22;50401;48.188;11.566;2022-12-24T03:05:57;11.03;80.08
64111;DHT22;50401;48.188;11.566;2022-12-24T03:13:07;11.06;79.12
64111;DHT22;50401;48.188;11.566;2022-12-24T03:15:35;11.04;78.80
64111;DHT22;50401;48.188;11.566;2022-12-24T03:18:01;11.02;78.62
64111;DHT22;50401;48.188;11.566;2022-12-24T03:20:32;11.03;78.45
64111;DHT22;50401;48.188;11.566;2022-12-24T03:22:59;11.04;78.39
64111;DHT22;50401;48.188;11.566;2022-12-24T03:25:24;11.09;78.45
64111;DHT22;50401;48.188;11.566;2022-12-24T03:27:49;11.07;77.96
64111;DHT22;50401;48.188;11.566;2022-12-24T03:30:15;11.10;78.35
64111;DHT22;50401;48.188;11.566;2022-12-24T03:32:42;11.14;78.06
64111;DHT22;50401;48.188;11.566;2022-12-24T03:35:07;11.11;77.82
64111;DHT22;50401;48.188;11.566;2022-12-24T03:37:33;11.09;77.99
64111;DHT22;50401;48.188;11.566;2022-12-24T03:39:58;11.02;77.68
64111;DHT22;50401;48.188;11.566;2022-12-24T03:42:23;11.09;77.74
64111;DHT22;50401;48.188;11.566;2022-12-24T03:44:48;11.11;77.63
64111;DHT22;50401;48.188;11.566;2022-12-24T03:47:14;11.10;77.40
64111;DHT22;50401;48.188;11.566;2022-12-24T03:49:39;11.06;77.22
64111;DHT22;50401;48.188;11.566;2022-12-24T03:52:04;11.07;77.27
64111;DHT22;50401;48.188;11.566;2022-12-24T03:54:30;11.04;77.17
64111;DHT22;50401;48.188;11.566;2022-12-24T03:56:55;11.09;77.20
64111;DHT22;50401;48.188;11.566;2022-12-24T03:59:20;11.06;77.18
64111;DHT22;50401;48.188;11.566;2022-12-24T04:01:45;11.04;77.39
64111;DHT22;50401;48.188;11.566;2022-12-24T04:04:11;11.07;77.03
64111;DHT22;50401;48.188;11.566;2022-12-24T04:06:36;11.13;77.04
64111;DHT22;50401;48.188;11.566;2022-12-24T04:09:01;11.14;77.23
64111;DHT22;50401;48.188;11.566;2022-12-24T04:11:29;11.20;76.86
64111;DHT22;50401;48.188;11.566;2022-12-24T04:13:54;11.17;77.01
64111;DHT22;50401;48.188;11.566;2022-12-24T04:16:20;11.20;77.11
64111;DHT22;50401;48.188;11.566;2022-12-24T04:18:45;11.16;77.25
64111;DHT22;50401;48.188;11.566;2022-12-24T04:21:10;11.23;76.85
64111;DHT22;50401;48.188;11.566;2022-12-24T04:23:37;11.20;76.79
64111;DHT22;50401;48.188;11.566;2022-12-24T04:26:03;11.09;77.16
64111;DHT22;50401;48.188;11.566;2022-12-24T04:28:29;11.09;77.33
64111;DHT22;50401;48.188;11.566;2022-12-24T04:31:01;11.11;77.27
64111;DHT22;50401;48.188;11.566;2022-12-24T04:33:27;11.11;77.38
64111;DHT22;50401;48.188;11.566;2022-12-24T04:35:52;11.11;77.32
64111;DHT22;50401;48.188;11.566;2022-12-24T04:38:18;11.11;77.03
64111;DHT22;50401;48.188;11.566;2022-12-24T04:40:43;11.11;77.13
64111;DHT22;50401;48.188;11.566;2022-12-24T04:43:08;11.14;77.23
64111;DHT22;50401;48.188;11.566;2022-12-24T04:45:34;11.14;76.90
64111;DHT22;50401;48.188;11.566;2022-12-24T04:47:59;11.17;76.75
64111;DHT22;50401;48.188;11.566;2022-12-24T04:50:24;11.21;76.87
64111;DHT22;50401;48.188;11.566;2022-12-24T04:52:50;11.11;77.05
64111;DHT22;50401;48.188;11.566;2022-12-24T04:55:15;11.11;77.00
64111;DHT22;50401;48.188;11.566;2022-12-24T04:57:40;11.11;76.96
64111;DHT22;50401;48.188;11.566;2022-12-24T05:00:06;11.04;77.22
64111;DHT22;50401;48.188;11.566;2022-12-24T05:02:31;11.09;76.82
64111;DHT22;50401;48.188;11.566;2022-12-24T05:04:56;11.09;77.20
64111;DHT22;50401;48.188;11.566;2022-12-24T05:07:21;11.11;77.05
64111;DHT22;50401;48.188;11.566;2022-12-24T05:09:47;11.07;76.67
64111;DHT22;50401;48.188;11.566;2022-12-24T05:12:12;11.10;76.85
64111;DHT22;50401;48.188;11.566;2022-12-24T05:14:38;11.11;76.99
64111;DHT22;50401;48.188;11.566;2022-12-24T05:17:03;11.06;77.02
64111;DHT22;50401;48.188;11.566;2022-12-24T05:19:29;11.07;77.06
64111;DHT22;50401;48.188;11.566;2022-12-24T05:21:54;11.06;76.78
64111;DHT22;50401;48.188;11.566;2022-12-24T05:24:38;11.04;76.84
64111;DHT22;50401;48.188;11.566;2022-12-24T05:27:22;10.99;76.82
64111;DHT22;50401;48.188;11.566;2022-12-24T05:29:47;11.00;76.82
64111;DHT22;50401;48.188;11.566;2022-12-24T05:32:12;11.02;76.96
64111;DHT22;50401;48.188;11.566;2022-12-24T05:34:38;11.06;76.66
64111;DHT22;50401;48.188;11.566;2022-12-24T05:37:03;11.06;76.50
64111;DHT22;50401;48.188;11.566;2022-12-24T05:39:28;11.04;76.63
64111;DHT22;50401;48.188;11.566;2022-12-24T05:41:53;11.04;76.67
64111;DHT22;50401;48.188;11.566;2022-12-24T05:44:19;11.02;76.50
64111;DHT22;50401;48.188;11.566;2022-12-24T05:46:44;11.03;76.57
64111;DHT22;50401;48.188;11.566;2022-12-24T05:49:09;11.00;76.54
64111;DHT22;50401;48.188;11.566;2022-12-24T05:51:34;11.02;76.09
64111;DHT22;50401;48.188;11.566;2022-12-24T05:54:00;11.04;76.04
64111;DHT22;50401;48.188;11.566;2022-12-24T05:56:25;11.06;76.03
64111;DHT22;50401;48.188;11.566;2022-12-24T05:58:51;11.06;75.65
64111;DHT22;50401;48.188;11.566;2022-12-24T06:01:17;11.04;75.74
64111;DHT22;50401;48.188;11.566;2022-12-24T06:03:42;10.97;75.75
64111;DHT22;50401;48.188;11.566;2022-12-24T06:06:15;10.96;75.81
64111;DHT22;50401;48.188;11.566;2022-12-24T06:08:43;11.03;75.57
64111;DHT22;50401;48.188;11.566;2022-12-24T06:11:09;11.03;75.22
64111;DHT22;50401;48.188;11.566;2022-12-24T06:13:35;11.00;75.00
64111;DHT22;50401;48.188;11.566;2022-12-24T06:16:01;10.97;75.25
64111;DHT22;50401;48.188;11.566;2022-12-24T06:18:27;11.00;75.27
64111;DHT22;50401;48.188;11.566;2022-12-24T06:20:53;11.02;75.27
64111;DHT22;50401;48.188;11.566;2022-12-24T06:23:18;11.02;75.31
64111;DHT22;50401;48.188;11.566;2022-12-24T06:25:44;11.00;75.02
64111;DHT22;50401;48.188;11.566;2022-12-24T06:28:09;11.06;74.74
64111;DHT22;50401;48.188;11.566;2022-12-24T06:30:35;11.06;74.52
64111;DHT22;50401;48.188;11.566;2022-12-24T06:33:00;11.03;74.80
64111;DHT22;50401;48.188;11.566;2022-12-24T06:35:25;11.02;75.09
64111;DHT22;50401;48.188;11.566;2022-12-24T06:37:51;11.02;75.05
64111;DHT22;50401;48.188;11.566;2022-12-24T06:40:16;11.00;75.35
64111;DHT22;50401;48.188;11.566;2022-12-24T06:42:41;10.99;75.59
64111;DHT22;50401;48.188;11.566;2022-12-24T06:45:07;10.96;75.84
64111;DHT22;50401;48.188;11.566;2022-12-24T06:47:32;10.93;75.90
64111;DHT22;50401;48.188;11.566;2022-12-24T06:49:57;10.93;76.12
64111;DHT22;50401;48.188;11.566;2022-12-24T06:52:22;10.92;76.13
64111;DHT22;50401;48.188;11.566;2022-12-24T06:54:48;10.89;76.29
64111;DHT22;50401;48.188;11.566;2022-12-24T06:57:13;10.92;76.48
64111;DHT22;50401;48.188;11.566;2022-12-24T06:59:38;10.97;76.14
64111;DHT22;50401;48.188;11.566;2022-12-24T07:02:03;10.95;76.27
64111;DHT22;50401;48.188;11.566;2022-12-24T07:04:29;10.96;76.15
64111;DHT22;50401;48.188;11.566;2022-12-24T07:06:54;10.85;76.56
64111;DHT22;50401;48.188;11.566;2022-12-24T07:09:19;10.83;76.38
64111;DHT22;50401;48.188;11.566;2022-12-24T07:11:44;10.76;76.55
64111;DHT22;50401;48.188;11.566;2022-12-24T07:14:10;10.76;76.55
64111;DHT22;50401;48.188;11.566;2022-12-24T07:16:35;10.78;76.46
64111;DHT22;50401;48.188;11.566;2022-12-24T07:19:00;10.80;76.22
64111;DHT22;50401;48.188;11.566;2022-12-24T07:21:26;10.78;75.89
64111;DHT22;50401;48.188;11.566;2022-12-24T07:23:51;10.72;75.74
64111;DHT22;50401;48.188;11.566;2022-12-24T07:26:16;10.75;75.43
64111;DHT22;50401;48.188;11.566;2022-12-24T07:28:41;10.75;75.43
64111;DHT22;50401;48.188;11.566;2022-12-24T07:31:07;10.78;75.10
64111;DHT22;50401;48.188;11.566;2022-12-24T07:33:32;10.73;74.81
64111;DHT22;50401;48.188;11.566;2022-12-24T07:36:07;10.69;74.89
64111;DHT22;50401;48.188;11.566;2022-12-24T07:38:33;10.78;74.17
64111;DHT22;50401;48.188;11.566;2022-12-24T07:40:58;10.71;74.25
64111;DHT22;50401;48.188;11.566;2022-12-24T07:43:24;10.69;73.81
64111;DHT22;50401;48.188;11.566;2022-12-24T07:45:49;10.69;74.08
64111;DHT22;50401;48.188;11.566;2022-12-24T07:48:15;10.73;74.14
64111;DHT22;50401;48.188;11.566;2022-12-24T07:50:41;10.78;74.20
64111;DHT22;50401;48.188;11.566;2022-12-24T07:53:06;10.71;73.75
64111;DHT22;50401;48.188;11.566;2022-12-24T07:55:34;10.71;73.03
64111;DHT22;50401;48.188;11.566;2022-12-24T07:57:59;10.69;73.05
64111;DHT22;50401;48.188;11.566;2022-12-24T08:00:25;10.68;72.48
64111;DHT22;50401;48.188;11.566;2022-12-24T08:02:50;10.67;72.60
64111;DHT22;50401;48.188;11.566;2022-12-24T08:05:15;10.73;72.22
64111;DHT22;50401;48.188;11.566;2022-12-24T08:07:40;10.71;72.23
64111;DHT22;50401;48.188;11.566;2022-12-24T08:10:06;10.68;71.89
64111;DHT22;50401;48.188;11.566;2022-12-24T08:12:31;10.69;72.24
64111;DHT22;50401;48.188;11.566;2022-12-24T08:14:56;10.78;71.58
64111;DHT22;50401;48.188;11.566;2022-12-24T08:17:22;10.76;71.21
64111;DHT22;50401;48.188;11.566;2022-12-24T08:19:47;10.78;71.38
64111;DHT22;50401;48.188;11.566;2022-12-24T08:22:12;10.79;71.24
64111;DHT22;50401;48.188;11.566;2022-12-24T08:24:37;10.73;70.89
64111;DHT22;50401;48.188;11.566;2022-12-24T08:27:03;10.75;71.11
64111;DHT22;50401;48.188;11.566;2022-12-24T08:29:28;10.73;71.27
64111;DHT22;50401;48.188;11.566;2022-12-24T08:31:53;10.72;71.17
64111;DHT22;50401;48.188;11.566;2022-12-24T08:34:18;10.76;71.03
64111;DHT22;50401;48.188;11.566;2022-12-24T08:36:44;10.85;70.85
64111;DHT22;50401;48.188;11.566;2022-12-24T08:39:09;10.75;70.23
64111;DHT22;50401;48.188;11.566;2022-12-24T08:41:34;10.80;70.37
64111;DHT22;50401;48.188;11.566;2022-12-24T08:44:00;10.83;70.54
64111;DHT22;50401;48.188;11.566;2022-12-24T08:46:25;10.91;70.35
64111;DHT22;50401;48.188;11.566;2022-12-24T08:48:50;10.95;70.27
64111;DHT22;50401;48.188;11.566;2022-12-24T08:51:16;10.99;70.47
64111;DHT22;50401;48.188;11.566;2022-12-24T08:53:43;10.93;69.98
64111;DHT22;50401;48.188;11.566;2022-12-24T08:56:08;10.93;70.23
64111;DHT22;50401;48.188;11.566;2022-12-24T08:58:34;10.91;70.06
64111;DHT22;50401;48.188;11.566;2022-12-24T09:00:59;10.79;70.19
64111;DHT22;50401;48.188;11.566;2022-12-24T09:03:25;10.89;69.98
64111;DHT22;50401;48.188;11.566;2022-12-24T09:05:50;10.96;70.27
64111;DHT22;50401;48.188;11.566;2022-12-24T09:08:17;10.96;70.17
64111;DHT22;50401;48.188;11.566;2022-12-24T09:10:42;10.97;70.03
64111;DHT22;50401;48.188;11.566;2022-12-24T09:13:08;11.03;69.61
64111;DHT22;50401;48.188;11.566;2022-12-24T09:15:33;11.13;69.30
64111;DHT22;50401;48.188;11.566;2022-12-24T09:17:59;11.10;68.93
64111;DHT22;50401;48.188;11.566;2022-12-24T09:20:24;11.46;68.57
64111;DHT22;50401;48.188;11.566;2022-12-24T09:22:50;12.16;66.97
64111;DHT22;50401;48.188;11.566;2022-12-24T09:25:15;12.28;66.03
64111;DHT22;50401;48.188;11.566;2022-12-24T09:27:40;12.24;65.03
64111;DHT22;50401;48.188;11.566;2022-12-24T09:30:06;11.97;66.01
64111;DHT22;50401;48.188;11.566;2022-12-24T09:32:31;11.87;66.25
64111;DHT22;50401;48.188;11.566;2022-12-24T09:34:57;11.68;66.78
64111;DHT22;50401;48.188;11.566;2022-12-24T09:37:22;11.59;67.05
64111;DHT22;50401;48.188;11.566;2022-12-24T09:39:48;11.44;67.39
64111;DHT22;50401;48.188;11.566;2022-12-24T09:44:58;11.26;67.97
64111;DHT22;50401;48.188;11.566;2022-12-24T09:49:53;11.27;67.89
64111;DHT22;50401;48.188;11.566;2022-12-24T09:52:34;11.24;67.77
64111;DHT22;50401;48.188;11.566;2022-12-24T09:55:02;11.16;67.67
64111;DHT22;50401;48.188;11.566;2022-12-24T09:57:31;11.13;67.81
64111;DHT22;50401;48.188;11.566;2022-12-24T09:59:58;11.14;67.68
64111;DHT22;50401;48.188;11.566;2022-12-24T10:02:23;11.09;67.76
64111;DHT22;50401;48.188;11.566;2022-12-24T10:04:49;10.99;67.42
64111;DHT22;50401;48.188;11.566;2022-12-24T10:10:17;11.19;67.26
64111;DHT22;50401;48.188;11.566;2022-12-24T10:16:02;11.54;66.40
64111;DHT22;50401;48.188;11.566;2022-12-24T10:21:14;11.54;65.74
64111;DHT22;50401;48.188;11.566;2022-12-24T10:28:37;11.66;64.96
64111;DHT22;50401;48.188;11.566;2022-12-24T10:31:04;11.44;65.02
64111;DHT22;50401;48.188;11.566;2022-12-24T10:33:32;11.31;65.38
64111;DHT22;50401;48.188;11.566;2022-12-24T10:35:59;11.35;65.08
64111;DHT22;50401;48.188;11.566;2022-12-24T10:38:24;11.34;65.11
64111;DHT22;50401;48.188;11.566;2022-12-24T10:40:51;11.34;65.27
64111;DHT22;50401;48.188;11.566;2022-12-24T10:43:18;11.37;65.48
64111;DHT22;50401;48.188;11.566;2022-12-24T10:45:51;11.42;65.36
64111;DHT22;50401;48.188;11.566;2022-12-24T10:48:20;11.30;65.01
64111;DHT22;50401;48.188;11.566;2022-12-24T10:50:51;11.31;65.44
64111;DHT22;50401;48.188;11.566;2022-12-24T10:53:17;11.27;65.65
64111;DHT22;50401;48.188;11.566;2022-12-24T10:55:46;11.31;65.42
64111;DHT22;50401;48.188;11.566;2022-12-24T10:58:12;11.27;65.87
64111;DHT22;50401;48.188;11.566;2022-12-24T11:00:38;11.28;65.78
64111;DHT22;50401;48.188;11.566;2022-12-24T11:03:19;11.41;65.55
64111;DHT22;50401;48.188;11.566;2022-12-24T11:05:45;11.35;65.45
64111;DHT22;50401;48.188;11.566;2022-12-24T11:08:22;11.41;65.22
64111;DHT22;50401;48.188;11.566;2022-12-24T11:10:53;11.44;65.37
64111;DHT22;50401;48.188;11.566;2022-12-24T11:15:47;11.39;65.48
64111;DHT22;50401;48.188;11.566;2022-12-24T11:18:15;11.45;65.79
64111;DHT22;50401;48.188;11.566;2022-12-24T11:20:40;11.51;65.47
64111;DHT22;50401;48.188;11.566;2022-12-24T11:23:13;11.52;65.13
64111;DHT22;50401;48.188;11.566;2022-12-24T11:25:40;11.55;64.94
64111;DHT22;50401;48.188;11.566;2022-12-24T11:28:10;11.58;64.91
64111;DHT22;50401;48.188;11.566;2022-12-24T11:30:36;11.50;65.32
64111;DHT22;50401;48.188;11.566;2022-12-24T11:35:28;11.52;65.48
64111;DHT22;50401;48.188;11.566;2022-12-24T11:40:27;11.46;65.44
64111;DHT22;50401;48.188;11.566;2022-12-24T11:42:58;11.51;65.15
64111;DHT22;50401;48.188;11.566;2022-12-24T11:45:25;11.51;65.24
64111;DHT22;50401;48.188;11.566;2022-12-24T11:47:51;11.42;65.78
64111;DHT22;50401;48.188;11.566;2022-12-24T11:57:59;11.75;64.99
64111;DHT22;50401;48.188;11.566;2022-12-24T12:00:26;11.79;64.84
64111;DHT22;50401;48.188;11.566;2022-12-24T12:02:53;11.79;65.22
64111;DHT22;50401;48.188;11.566;2022-12-24T12:05:20;11.79;65.24
64111;DHT22;50401;48.188;11.566;2022-12-24T12:07:49;11.75;65.71
64111;DHT22;50401;48.188;11.566;2022-12-24T12:10:19;11.72;65.86
64111;DHT22;50401;48.188;11.566;2022-12-24T12:12:49;11.63;66.04
64111;DHT22;50401;48.188;11.566;2022-12-24T12:15:20;11.59;66.52
64111;DHT22;50401;48.188;11.566;2022-12-24T12:20:30;11.39;66.89
64111;DHT22;50401;48.188;11.566;2022-12-24T12:22:57;11.44;66.69
64111;DHT22;50401;48.188;11.566;2022-12-24T12:25:31;11.35;67.23
64111;DHT22;50401;48.188;11.566;2022-12-24T12:27:58;11.45;66.98
64111;DHT22;50401;48.188;11.566;2022-12-24T12:30:24;11.42;67.05
64111;DHT22;50401;48.188;11.566;2022-12-24T12:32:52;11.34;67.39
64111;DHT22;50401;48.188;11.566;2022-12-24T12:38:49;11.24;67.40
64111;DHT22;50401;48.188;11.566;2022-12-24T12:40:48;11.21;68.00
64111;DHT22;50401;48.188;11.566;2022-12-24T12:45:44;11.24;67.75
64111;DHT22;50401;48.188;11.566;2022-12-24T12:58:23;11.32;67.81
64111;DHT22;50401;48.188;11.566;2022-12-24T13:00:51;11.28;67.97
64111;DHT22;50401;48.188;11.566;2022-12-24T13:03:28;11.23;68.53
64111;DHT22;50401;48.188;11.566;2022-12-24T13:13:51;11.27;68.65
64111;DHT22;50401;48.188;11.566;2022-12-24T13:21:17;11.32;68.16
64111;DHT22;50401;48.188;11.566;2022-12-24T13:23:43;11.32;68.27
64111;DHT22;50401;48.188;11.566;2022-12-24T13:26:10;11.42;68.02
64111;DHT22;50401;48.188;11.566;2022-12-24T13:28:36;11.41;68.00
64111;DHT22;50401;48.188;11.566;2022-12-24T13:36:18;11.42;67.45
64111;DHT22;50401;48.188;11.566;2022-12-24T13:46:46;11.10;68.42
64111;DHT22;50401;48.188;11.566;2022-12-24T13:49:26;11.07;68.34
64111;DHT22;50401;48.188;11.566;2022-12-24T13:52:03;11.07;68.71
64111;DHT22;50401;48.188;11.566;2022-12-24T13:54:29;11.07;68.69
64111;DHT22;50401;48.188;11.566;2022-12-24T13:56:54;11.07;68.60
64111;DHT22;50401;48.188;11.566;2022-12-24T13:59:33;11.11;68.57
64111;DHT22;50401;48.188;11.566;2022-12-24T14:02:00;11.10;68.65
64111;DHT22;50401;48.188;11.566;2022-12-24T14:04:27;11.09;68.58
64111;DHT22;50401;48.188;11.566;2022-12-24T14:06:54;11.04;68.69
64111;DHT22;50401;48.188;11.566;2022-12-24T14:09:22;10.99;68.66
64111;DHT22;50401;48.188;11.566;2022-12-24T14:14:30;10.89;69.05
64111;DHT22;50401;48.188;11.566;2022-12-24T14:17:04;10.89;69.18
64111;DHT22;50401;48.188;11.566;2022-12-24T14:19:42;10.89;69.14
64111;DHT22;50401;48.188;11.566;2022-12-24T14:24:45;10.80;69.38
64111;DHT22;50401;48.188;11.566;2022-12-24T14:29:52;10.78;69.51
64111;DHT22;50401;48.188;11.566;2022-12-24T14:32:21;10.76;69.57
64111;DHT22;50401;48.188;11.566;2022-12-24T14:34:56;10.79;69.50
64111;DHT22;50401;48.188;11.566;2022-12-24T14:37:28;10.78;69.49
64111;DHT22;50401;48.188;11.566;2022-12-24T14:39:53;10.75;69.72
64111;DHT22;50401;48.188;11.566;2022-12-24T14:47:22;10.71;69.96
64111;DHT22;50401;48.188;11.566;2022-12-24T14:49:56;10.69;69.93
64111;DHT22;50401;48.188;11.566;2022-12-24T14:54:54;10.60;70.24
64111;DHT22;50401;48.188;11.566;2022-12-24T14:57:20;10.54;70.45
64111;DHT22;50401;48.188;11.566;2022-12-24T14:59:58;10.55;70.57
64111;DHT22;50401;48.188;11.566;2022-12-24T15:05:11;10.52;70.73
64111;DHT22;50401;48.188;11.566;2022-12-24T15:07:38;10.45;70.91
64111;DHT22;50401;48.188;11.566;2022-12-24T15:10:05;10.36;71.07
64111;DHT22;50401;48.188;11.566;2022-12-24T15:12:32;10.32;71.36
64111;DHT22;50401;48.188;11.566;2022-12-24T15:14:57;10.33;71.44
64111;DHT22;50401;48.188;11.566;2022-12-24T15:17:22;10.30;71.61
64111;DHT22;50401;48.188;11.566;2022-12-24T15:19:49;10.23;71.89
64111;DHT22;50401;48.188;11.566;2022-12-24T15:22:21;10.14;72.14
64111;DHT22;50401;48.188;11.566;2022-12-24T15:24:46;10.23;72.10
64111;DHT22;50401;48.188;11.566;2022-12-24T15:27:13;10.20;72.15
64111;DHT22;50401;48.188;11.566;2022-12-24T15:29:41;10.12;72.22
64111;DHT22;50401;48.188;11.566;2022-12-24T15:32:09;10.10;72.39
64111;DHT22;50401;48.188;11.566;2022-12-24T15:34:36;10.08;72.43
64111;DHT22;50401;48.188;11.566;2022-12-24T15:37:03;10.02;72.68
64111;DHT22;50401;48.188;11.566;2022-12-24T15:39:30;9.99;72.80
64111;DHT22;50401;48.188;11.566;2022-12-24T15:41:55;10.03;72.80
64111;DHT22;50401;48.188;11.566;2022-12-24T15:47:28;9.95;73.04
64111;DHT22;50401;48.188;11.566;2022-12-24T15:50:01;9.98;73.06
64111;DHT22;50401;48.188;11.566;2022-12-24T15:52:27;9.95;73.20
64111;DHT22;50401;48.188;11.566;2022-12-24T15:54:52;9.95;73.35
64111;DHT22;50401;48.188;11.566;2022-12-24T15:59:49;9.88;73.38
64111;DHT22;50401;48.188;11.566;2022-12-24T16:07:58;9.91;73.40
64111;DHT22;50401;48.188;11.566;2022-12-24T16:10:33;9.95;73.45
64111;DHT22;50401;48.188;11.566;2022-12-24T16:12:59;9.95;73.31
64111;DHT22;50401;48.188;11.566;2022-12-24T16:15:25;9.74;73.48
64111;DHT22;50401;48.188;11.566;2022-12-24T16:17:50;9.79;73.68
64111;DHT22;50401;48.188;11.566;2022-12-24T16:20:19;9.85;73.57
64111;DHT22;50401;48.188;11.566;2022-12-24T16:22:45;9.91;73.45
64111;DHT22;50401;48.188;11.566;2022-12-24T16:25:20;9.84;73.61
64111;DHT22;50401;48.188;11.566;2022-12-24T16:27:47;9.86;73.59
64111;DHT22;50401;48.188;11.566;2022-12-24T16:30:12;9.82;73.69
64111;DHT22;50401;48.188;11.566;2022-12-24T16:32:38;9.79;73.73
64111;DHT22;50401;48.188;11.566;2022-12-24T16:35:05;9.78;73.95
64111;DHT22;50401;48.188;11.566;2022-12-24T16:37:31;9.81;73.90
64111;DHT22;50401;48.188;11.566;2022-12-24T16:39:56;9.77;73.82
64111;DHT22;50401;48.188;11.566;2022-12-24T16:42:23;9.77;73.85
64111;DHT22;50401;48.188;11.566;2022-12-24T16:45:06;9.70;73.87
64111;DHT22;50401;48.188;11.566;2022-12-24T16:47:33;9.70;74.02
64111;DHT22;50401;48.188;11.566;2022-12-24T16:49:59;9.74;73.94
64111;DHT22;50401;48.188;11.566;2022-12-24T16:52:26;9.73;73.93
64111;DHT22;50401;48.188;11.566;2022-12-24T16:54:53;9.77;73.80
64111;DHT22;50401;48.188;11.566;2022-12-24T16:57:18;9.74;73.82
64111;DHT22;50401;48.188;11.566;2022-12-24T16:59:44;9.71;73.74
64111;DHT22;50401;48.188;11.566;2022-12-24T17:02:13;9.71;73.66
64111;DHT22;50401;48.188;11.566;2022-12-24T17:04:39;9.67;73.94
64111;DHT22;50401;48.188;11.566;2022-12-24T17:07:04;9.71;73.79
64111;DHT22;50401;48.188;11.566;2022-12-24T17:09:30;9.74;73.66
64111;DHT22;50401;48.188;11.566;2022-12-24T17:11:55;9.64;73.82
64111;DHT22;50401;48.188;11.566;2022-12-24T17:14:21;9.67;73.67
64111;DHT22;50401;48.188;11.566;2022-12-24T17:16:46;9.70;73.62
64111;DHT22;50401;48.188;11.566;2022-12-24T17:19:11;9.70;73.60
64111;DHT22;50401;48.188;11.566;2022-12-24T17:21:37;9.73;73.52
64111;DHT22;50401;48.188;11.566;2022-12-24T17:24:02;9.67;73.65
64111;DHT22;50401;48.188;11.566;2022-12-24T17:26:27;9.73;73.59
64111;DHT22;50401;48.188;11.566;2022-12-24T17:28:54;9.75;73.52
64111;DHT22;50401;48.188;11.566;2022-12-24T17:31:19;9.79;73.25
64111;DHT22;50401;48.188;11.566;2022-12-24T17:33:46;9.79;73.22